Time;durP1;ratioP1;P1;durP2;ratioP2;P2;SDS_P1;SDS_P2;PMS_P1;PMS_P2;Temp;Humidity;BMP_temperature;BMP_pressure;BME280_temperature;BME280_humidity;BME280_pressure;Samples;Min_cycle;Max_cycle;Signal;HPM_P1;HPM_P2
2022/12/26 00:01:21;;;;;;;;;;;4.60;78.90;;;;;;5044907;28;87357;-40
2022/12/26 00:03:46;;;;;;;;;;;4.60;78.80;;;;;;5044814;27;87250;-40
2022/12/26 00:06:16;;;;;;;;;;;4.60;78.90;;;;;;5044878;28;87185;-40
2022/12/26 00:08:42;;;;;;;;;;;4.50;79.10;;;;;;5044578;28;87442;-40
2022/12/26 00:11:08;;;;;;;;;;;4.50;79.00;;;;;;5043698;28;88630;-40
2022/12/26 00:13:34;;;;;;;;;;;4.50;79.00;;;;;;5047549;28;87289;-40
2022/12/26 00:15:59;;;;;;;;;;;4.50;79.00;;;;;;5044199;27;88343;-40
2022/12/26 00:18:25;;;;;;;;;;;4.50;79.10;;;;;;5044287;28;87751;-41
2022/12/26 00:20:50;;;;;;;;;;;4.50;79.20;;;;;;5044463;28;87341;-40
2022/12/26 00:23:16;;;;;;;;;;;4.40;79.20;;;;;;5043873;27;88166;-40
2022/12/26 00:25:41;;;;;;;;;;;4.40;79.20;;;;;;5044331;28;87112;-40
2022/12/26 00:28:07;;;;;;;;;;;4.50;79.20;;;;;;5044681;28;86572;-40
2022/12/26 00:30:32;;;;;;;;;;;4.50;79.20;;;;;;5044119;28;88250;-40
2022/12/26 00:32:58;;;;;;;;;;;4.40;79.30;;;;;;5047199;27;87189;-40
2022/12/26 00:35:23;;;;;;;;;;;4.40;79.40;;;;;;5042608;27;88950;-41
2022/12/26 00:37:49;;;;;;;;;;;4.30;79.40;;;;;;5044255;28;87041;-41
2022/12/26 00:40:14;;;;;;;;;;;4.40;79.40;;;;;;5044368;28;87406;-40
2022/12/26 00:42:40;;;;;;;;;;;4.40;79.20;;;;;;5043322;28;88278;-40
2022/12/26 00:45:06;;;;;;;;;;;4.40;79.10;;;;;;5044495;28;87198;-41
2022/12/26 00:47:31;;;;;;;;;;;4.40;79.20;;;;;;5043995;28;87381;-40
2022/12/26 00:49:56;;;;;;;;;;;4.40;79.20;;;;;;5043832;28;88741;-40
2022/12/26 00:52:22;;;;;;;;;;;4.40;79.10;;;;;;5044490;28;86400;-40
2022/12/26 00:54:47;;;;;;;;;;;4.30;79.20;;;;;;5046601;28;87030;-40
2022/12/26 00:57:13;;;;;;;;;;;4.30;79.20;;;;;;5043876;27;87130;-40
2022/12/26 00:59:38;;;;;;;;;;;4.30;79.20;;;;;;5043198;28;87948;-40
2022/12/26 01:02:36;;;;;;;;;;;4.30;79.60;;;;;;5043531;28;88048;-40
2022/12/26 01:04:49;;;;;;;;;;;4.30;79.20;;;;;;5043292;28;87135;-40
2022/12/26 01:07:15;;;;;;;;;;;4.30;79.20;;;;;;5043826;28;87369;-40
2022/12/26 01:09:40;;;;;;;;;;;4.30;79.20;;;;;;5043577;28;88298;-40
2022/12/26 01:12:06;;;;;;;;;;;4.30;79.20;;;;;;5043923;28;87100;-40
2022/12/26 01:14:31;;;;;;;;;;;4.30;79.20;;;;;;5043740;28;87059;-41
2022/12/26 01:16:57;;;;;;;;;;;4.30;79.10;;;;;;5046358;28;87177;-40
2022/12/26 01:19:23;;;;;;;;;;;4.30;78.90;;;;;;5043739;28;87003;-41
2022/12/26 01:21:48;;;;;;;;;;;4.30;78.90;;;;;;5043203;28;87845;-40
2022/12/26 01:24:14;;;;;;;;;;;4.30;78.90;;;;;;5043036;28;88761;-41
2022/12/26 01:26:39;;;;;;;;;;;4.30;78.90;;;;;;5043561;28;88604;-40
2022/12/26 01:29:05;;;;;;;;;;;4.30;78.90;;;;;;5043136;28;88029;-40
2022/12/26 01:31:30;;;;;;;;;;;4.30;78.80;;;;;;5042956;28;87817;-40
2022/12/26 01:33:56;;;;;;;;;;;4.30;78.80;;;;;;5043279;28;87386;-40
2022/12/26 01:36:21;;;;;;;;;;;4.30;78.80;;;;;;5042981;28;88172;-40
2022/12/26 01:38:47;;;;;;;;;;;4.20;78.90;;;;;;5046244;28;87170;-40
2022/12/26 01:41:16;;;;;;;;;;;4.20;78.90;;;;;;5042921;28;87302;-40
2022/12/26 01:44:04;;;;;;;;;;;4.20;78.90;;;;;;5043145;28;86965;-41
2022/12/26 01:46:33;;;;;;;;;;;4.20;79.50;;;;;;5027976;28;87179;-40
2022/12/26 01:49:06;;;;;;;;;;;4.20;79.00;;;;;;5042001;28;89170;-40
2022/12/26 01:51:34;;;;;;;;;;;4.20;79.10;;;;;;5043114;28;86947;-40
2022/12/26 01:54:00;;;;;;;;;;;4.20;78.80;;;;;;5042895;28;87508;-40
2022/12/26 01:56:28;;;;;;;;;;;4.20;78.80;;;;;;5042260;28;89385;-40
2022/12/26 01:58:56;;;;;;;;;;;4.20;78.80;;;;;;5043115;28;87313;-40
2022/12/26 02:01:24;;;;;;;;;;;4.20;78.90;;;;;;5045359;28;87385;-40
2022/12/26 02:06:34;;;;;;;;;;;4.20;78.90;;;;;;5043583;28;86625;-40
2022/12/26 02:08:59;;;;;;;;;;;4.20;78.90;;;;;;5042479;28;88264;-40
2022/12/26 02:11:33;;;;;;;;;;;4.10;78.80;;;;;;5042833;28;87043;-40
2022/12/26 02:14:00;;;;;;;;;;;4.10;78.80;;;;;;5042122;28;87864;-40
2022/12/26 02:16:26;;;;;;;;;;;4.10;78.70;;;;;;5042231;28;87463;-40
2022/12/26 02:18:51;;;;;;;;;;;4.10;78.80;;;;;;5042310;28;87216;-40
2022/12/26 02:21:17;;;;;;;;;;;4.10;78.70;;;;;;5045139;28;87455;-40
2022/12/26 02:23:49;;;;;;;;;;;4.10;78.80;;;;;;5042604;28;87146;-40
2022/12/26 02:26:33;;;;;;;;;;;4.10;79.00;;;;;;5042722;28;87123;-40
2022/12/26 02:29:08;;;;;;;;;;;4.00;78.90;;;;;;5041940;28;88022;-40
2022/12/26 02:31:33;;;;;;;;;;;4.10;78.80;;;;;;5043031;28;86680;-40
2022/12/26 02:33:59;;;;;;;;;;;4.10;78.70;;;;;;5042637;28;87309;-41
2022/12/26 02:36:24;;;;;;;;;;;4.10;78.70;;;;;;5042125;28;88147;-40
2022/12/26 02:38:56;;;;;;;;;;;4.00;78.80;;;;;;5041915;28;88087;-40
2022/12/26 02:41:29;;;;;;;;;;;4.00;78.80;;;;;;5041951;27;88351;-40
2022/12/26 02:47:01;;;;;;;;;;;4.00;78.90;;;;;;5045210;28;88174;-40
2022/12/26 02:47:04;;;;;;;;;;;4.00;78.90;;;;;;5041893;28;88231;-40
2022/12/26 03:13:09;;;;;;;;;;;4.00;78.80;;;;;;5041754;27;89118;-40
2022/12/26 03:14:45;;;;;;;;;;;4.00;78.70;;;;;;5045908;28;88073;-40
2022/12/26 03:17:24;;;;;;;;;;;3.90;78.60;;;;;;5045194;28;89072;-40
2022/12/26 03:19:58;;;;;;;;;;;3.90;78.60;;;;;;5045356;28;87318;-40
2022/12/26 03:22:32;;;;;;;;;;;3.90;78.70;;;;;;5045468;28;87120;-40
2022/12/26 03:27:51;;;;;;;;;;;3.90;78.70;;;;;;5045158;27;87392;-40
2022/12/26 03:33:01;;;;;;;;;;;3.90;78.60;;;;;;5047281;28;87953;-40
2022/12/26 03:35:29;;;;;;;;;;;3.90;78.50;;;;;;5045318;28;87135;-40
2022/12/26 03:38:01;;;;;;;;;;;3.90;78.60;;;;;;5045117;28;87882;-40
2022/12/26 04:20:55;;;;;;;;;;;3.70;78.40;;;;;;5044789;28;86206;-40
2022/12/26 04:45:40;;;;;;;;;;;3.70;78.30;;;;;;5046556;28;86879;-40
2022/12/26 04:50:50;;;;;;;;;;;3.60;78.30;;;;;;5044244;28;87691;-40
2022/12/26 04:53:16;;;;;;;;;;;3.60;78.30;;;;;;5043958;28;87402;-40
2022/12/26 04:55:41;;;;;;;;;;;3.60;78.30;;;;;;5043070;28;89047;-40
2022/12/26 04:58:07;;;;;;;;;;;3.60;78.30;;;;;;5044013;28;87151;-40
2022/12/26 05:00:32;;;;;;;;;;;3.60;78.20;;;;;;5043853;28;87625;-40
2022/12/26 05:11:24;;;;;;;;;;;3.60;78.20;;;;;;5043929;28;86915;-40
2022/12/26 05:13:53;;;;;;;;;;;3.60;78.20;;;;;;5044168;28;87347;-40
2022/12/26 05:30:22;;;;;;;;;;;3.50;78.30;;;;;;5043298;28;86885;-40
2022/12/26 05:35:32;;;;;;;;;;;3.50;78.20;;;;;;5043351;28;87301;-40
2022/12/26 05:37:58;;;;;;;;;;;3.50;78.20;;;;;;5042997;28;87578;-40
2022/12/26 05:40:23;;;;;;;;;;;3.50;78.10;;;;;;5043789;28;86310;-40
2022/12/26 05:42:49;;;;;;;;;;;3.50;78.30;;;;;;5043206;28;86981;-40
2022/12/26 05:45:14;;;;;;;;;;;3.40;78.20;;;;;;5042809;28;87919;-40
2022/12/26 05:47:40;;;;;;;;;;;3.50;78.20;;;;;;5042245;28;88076;-40
2022/12/26 05:50:05;;;;;;;;;;;3.40;78.10;;;;;;5043243;28;88330;-40
2022/12/26 05:52:31;;;;;;;;;;;3.40;78.10;;;;;;5042359;27;89116;-40
2022/12/26 05:54:57;;;;;;;;;;;3.40;78.10;;;;;;5045695;28;87005;-40
2022/12/26 05:57:22;;;;;;;;;;;3.40;78.20;;;;;;5042630;28;88075;-40
2022/12/26 05:59:48;;;;;;;;;;;3.40;78.10;;;;;;5043146;28;87160;-40
2022/12/26 06:02:13;;;;;;;;;;;3.40;78.20;;;;;;5042691;28;88155;-40
2022/12/26 06:04:38;;;;;;;;;;;3.40;78.20;;;;;;5043133;28;87446;-40
2022/12/26 06:07:04;;;;;;;;;;;3.40;78.10;;;;;;5043066;28;87017;-40
2022/12/26 06:09:29;;;;;;;;;;;3.40;78.30;;;;;;5042610;28;87129;-40
2022/12/26 06:11:55;;;;;;;;;;;3.40;78.20;;;;;;5041804;28;89144;-40
2022/12/26 06:14:20;;;;;;;;;;;3.30;78.10;;;;;;5042764;28;87124;-40
2022/12/26 06:16:46;;;;;;;;;;;3.40;78.10;;;;;;5045239;28;86886;-40
2022/12/26 06:19:11;;;;;;;;;;;3.30;78.20;;;;;;5042791;28;87134;-40
2022/12/26 06:21:37;;;;;;;;;;;3.40;78.20;;;;;;5042772;28;87366;-40
2022/12/26 06:24:02;;;;;;;;;;;3.30;78.20;;;;;;5042314;28;88077;-40
2022/12/26 06:26:28;;;;;;;;;;;3.30;78.10;;;;;;5042633;28;87155;-40
2022/12/26 06:28:53;;;;;;;;;;;3.30;78.20;;;;;;5043243;28;87776;-40
2022/12/26 06:31:21;;;;;;;;;;;3.30;78.10;;;;;;5042239;28;88205;-40
2022/12/26 06:33:50;;;;;;;;;;;3.30;78.10;;;;;;5045083;27;87112;-40
2022/12/26 06:36:18;;;;;;;;;;;3.30;78.20;;;;;;5045491;28;87870;-40
2022/12/26 06:38:43;;;;;;;;;;;3.30;78.10;;;;;;5048640;28;87977;-40
2022/12/26 06:41:10;;;;;;;;;;;3.20;78.20;;;;;;5045834;27;87492;-40
2022/12/26 06:43:36;;;;;;;;;;;3.30;78.10;;;;;;5045655;28;88043;-40
2022/12/26 06:46:03;;;;;;;;;;;3.20;78.00;;;;;;5045868;28;87367;-40
2022/12/26 06:48:28;;;;;;;;;;;3.30;78.10;;;;;;5045989;28;86983;-40
2022/12/26 06:50:55;;;;;;;;;;;3.30;77.90;;;;;;5045643;28;87160;-40
2022/12/26 06:53:21;;;;;;;;;;;3.30;78.10;;;;;;5045880;28;86359;-40
2022/12/26 06:55:46;;;;;;;;;;;3.20;77.90;;;;;;5045949;27;86993;-40
2022/12/26 06:58:12;;;;;;;;;;;3.30;77.90;;;;;;5048056;28;88461;-40
2022/12/26 07:00:38;;;;;;;;;;;3.30;78.00;;;;;;5045298;28;87896;-40
2022/12/26 07:03:03;;;;;;;;;;;3.30;77.90;;;;;;5044928;28;89395;-40
2022/12/26 07:05:29;;;;;;;;;;;3.20;77.90;;;;;;5045870;28;87196;-40
2022/12/26 07:07:54;;;;;;;;;;;3.20;77.90;;;;;;5045756;28;87450;-40
2022/12/26 07:10:20;;;;;;;;;;;3.20;77.90;;;;;;5045304;28;88040;-40
2022/12/26 07:12:46;;;;;;;;;;;3.20;77.90;;;;;;5045513;28;87404;-40
2022/12/26 07:15:12;;;;;;;;;;;3.30;77.90;;;;;;5045244;28;90365;-40
2022/12/26 07:17:37;;;;;;;;;;;3.20;77.80;;;;;;5045706;28;87141;-40
2022/12/26 07:20:03;;;;;;;;;;;3.20;77.90;;;;;;5048416;28;87014;-40
2022/12/26 07:22:29;;;;;;;;;;;3.20;78.00;;;;;;5045103;28;88048;-40
2022/12/26 07:24:54;;;;;;;;;;;3.20;77.90;;;;;;5044573;28;88199;-40
2022/12/26 07:27:20;;;;;;;;;;;3.20;77.90;;;;;;5045320;28;88436;-40
2022/12/26 07:29:46;;;;;;;;;;;3.20;78.00;;;;;;5044733;28;88145;-40
2022/12/26 07:32:11;;;;;;;;;;;3.20;78.00;;;;;;5045238;28;87112;-40
2022/12/26 07:34:37;;;;;;;;;;;3.20;77.90;;;;;;5045548;28;87332;-40
2022/12/26 07:37:02;;;;;;;;;;;3.20;77.90;;;;;;5044699;28;87482;-40
2022/12/26 07:39:28;;;;;;;;;;;3.20;77.90;;;;;;5045018;27;87548;-40
2022/12/26 07:41:56;;;;;;;;;;;3.20;77.90;;;;;;5048076;28;87618;-40
2022/12/26 07:44:22;;;;;;;;;;;3.20;78.00;;;;;;5044692;27;87810;-40
2022/12/26 07:46:47;;;;;;;;;;;3.10;78.00;;;;;;5045147;28;87761;-40
2022/12/26 07:49:13;;;;;;;;;;;3.20;77.90;;;;;;5044159;28;89069;-40
2022/12/26 07:51:39;;;;;;;;;;;3.10;78.10;;;;;;5045100;28;87101;-40
2022/12/26 07:54:05;;;;;;;;;;;3.10;78.10;;;;;;5044650;27;87434;-40
2022/12/26 07:56:31;;;;;;;;;;;3.10;78.00;;;;;;5044715;28;87839;-40
2022/12/26 07:58:56;;;;;;;;;;;3.10;78.10;;;;;;5045044;28;87247;-40
2022/12/26 08:01:22;;;;;;;;;;;3.10;78.60;;;;;;5044788;28;87747;-40
2022/12/26 08:03:48;;;;;;;;;;;3.10;78.10;;;;;;5047337;28;87987;-40
2022/12/26 08:06:14;;;;;;;;;;;3.10;78.10;;;;;;5045027;28;88551;-40
2022/12/26 08:08:39;;;;;;;;;;;3.10;78.20;;;;;;5044363;28;88027;-40
2022/12/26 08:11:06;;;;;;;;;;;3.10;78.20;;;;;;5044653;28;87135;-40
2022/12/26 08:13:32;;;;;;;;;;;3.10;78.20;;;;;;5044037;28;88034;-40
2022/12/26 08:15:58;;;;;;;;;;;3.10;78.10;;;;;;5044463;28;87761;-40
2022/12/26 08:18:24;;;;;;;;;;;3.10;78.00;;;;;;5044431;28;87071;-40
2022/12/26 08:20:50;;;;;;;;;;;3.10;78.10;;;;;;5044646;28;87653;-40
2022/12/26 08:23:16;;;;;;;;;;;3.20;78.20;;;;;;5044051;28;88023;-40
2022/12/26 08:25:41;;;;;;;;;;;3.10;78.10;;;;;;5047341;28;87149;-40
2022/12/26 08:28:07;;;;;;;;;;;3.10;78.10;;;;;;5044092;28;87661;-40
2022/12/26 08:30:32;;;;;;;;;;;3.10;78.10;;;;;;5044762;28;86357;-40
2022/12/26 08:32:58;;;;;;;;;;;3.10;78.10;;;;;;5044400;28;86945;-40
2022/12/26 08:35:23;;;;;;;;;;;3.10;78.50;;;;;;5044082;28;88088;-40
2022/12/26 08:37:49;;;;;;;;;;;3.10;78.10;;;;;;5043625;28;87916;-40
2022/12/26 08:40:14;;;;;;;;;;;3.10;78.20;;;;;;5044081;28;88333;-40
2022/12/26 08:42:40;;;;;;;;;;;3.10;78.30;;;;;;5043632;28;88219;-40
2022/12/26 08:45:06;;;;;;;;;;;3.10;78.30;;;;;;5044366;28;87201;-40
2022/12/26 08:47:31;;;;;;;;;;;3.10;78.30;;;;;;5046638;28;87315;-40
2022/12/26 08:49:56;;;;;;;;;;;3.10;78.50;;;;;;5044270;28;87299;-40
2022/12/26 08:52:22;;;;;;;;;;;3.10;78.50;;;;;;5044032;28;87419;-40
2022/12/26 08:54:47;;;;;;;;;;;3.10;78.50;;;;;;5043614;27;87273;-40
2022/12/26 08:57:14;;;;;;;;;;;3.10;78.50;;;;;;5043494;28;87152;-40
2022/12/26 08:59:39;;;;;;;;;;;3.10;78.50;;;;;;5043879;28;87561;-40
2022/12/26 09:02:05;;;;;;;;;;;3.10;78.60;;;;;;5043027;28;88986;-40
2022/12/26 09:04:30;;;;;;;;;;;3.10;78.60;;;;;;5043958;28;87547;-40
2022/12/26 09:06:56;;;;;;;;;;;3.00;78.70;;;;;;5046462;28;87570;-40
2022/12/26 09:09:21;;;;;;;;;;;3.10;78.60;;;;;;5043616;28;87067;-40
2022/12/26 09:11:47;;;;;;;;;;;3.00;78.70;;;;;;5043563;28;88644;-40
2022/12/26 09:14:12;;;;;;;;;;;3.10;78.70;;;;;;5043223;28;88093;-40
2022/12/26 09:16:41;;;;;;;;;;;3.00;78.70;;;;;;5043877;28;87165;-40
2022/12/26 09:19:09;;;;;;;;;;;3.10;78.80;;;;;;5044046;28;87419;-40
2022/12/26 09:21:34;;;;;;;;;;;3.00;78.70;;;;;;5043323;28;88063;-40
2022/12/26 09:24:01;;;;;;;;;;;3.10;78.70;;;;;;5043470;27;87215;-40
2022/12/26 09:26:27;;;;;;;;;;;3.00;78.80;;;;;;5042860;28;88331;-40
2022/12/26 09:28:52;;;;;;;;;;;3.00;78.90;;;;;;5046091;28;88247;-40
2022/12/26 09:31:19;;;;;;;;;;;3.00;79.10;;;;;;5043429;28;87378;-40
2022/12/26 09:33:46;;;;;;;;;;;3.00;79.00;;;;;;5042904;28;88134;-40
2022/12/26 09:36:13;;;;;;;;;;;3.00;79.00;;;;;;5043164;28;87123;-40
2022/12/26 09:38:39;;;;;;;;;;;3.00;79.00;;;;;;5043355;28;87217;-40
2022/12/26 09:41:23;;;;;;;;;;;3.00;79.10;;;;;;5042682;28;88232;-40
2022/12/26 09:43:48;;;;;;;;;;;3.00;79.20;;;;;;5043787;28;86482;-40
2022/12/26 09:46:26;;;;;;;;;;;3.10;78.90;;;;;;5043276;28;87014;-40
2022/12/26 09:49:01;;;;;;;;;;;3.10;79.10;;;;;;5042905;28;88096;-40
2022/12/26 09:51:28;;;;;;;;;;;3.10;79.10;;;;;;5045071;28;87809;-40
2022/12/26 09:53:54;;;;;;;;;;;3.10;79.30;;;;;;5042655;28;88092;-40
2022/12/26 09:56:20;;;;;;;;;;;3.10;79.10;;;;;;5043110;28;87139;-40
2022/12/26 09:58:52;;;;;;;;;;;3.10;79.20;;;;;;5042913;28;87101;-40
2022/12/26 10:01:19;;;;;;;;;;;3.10;79.00;;;;;;5042298;28;88313;-40
2022/12/26 10:03:46;;;;;;;;;;;3.10;79.10;;;;;;5042836;28;87110;-40
2022/12/26 10:06:19;;;;;;;;;;;3.10;79.00;;;;;;5042644;28;88910;-40
2022/12/26 10:08:56;;;;;;;;;;;3.10;79.10;;;;;;5042011;28;87156;-40
2022/12/26 10:11:28;;;;;;;;;;;3.10;79.20;;;;;;5043026;28;87015;-40
2022/12/26 10:14:19;;;;;;;;;;;3.10;79.30;;;;;;5045238;28;87203;-40
2022/12/26 10:16:48;;;;;;;;;;;3.10;79.40;;;;;;5036909;28;87929;-40
2022/12/26 10:19:22;;;;;;;;;;;3.20;79.30;;;;;;5042891;28;88349;-40
2022/12/26 10:22:09;;;;;;;;;;;3.20;79.20;;;;;;5042377;28;88072;-40
2022/12/26 10:24:36;;;;;;;;;;;3.20;79.30;;;;;;5042753;28;87193;-40
2022/12/26 10:27:05;;;;;;;;;;;3.20;79.30;;;;;;5042568;28;87606;-40
2022/12/26 10:29:34;;;;;;;;;;;3.20;79.10;;;;;;5041940;28;88024;-40
2022/12/26 10:32:03;;;;;;;;;;;3.20;79.50;;;;;;5042429;28;87179;-40
2022/12/26 10:34:28;;;;;;;;;;;3.20;79.40;;;;;;5042784;28;87358;-40
2022/12/26 10:36:54;;;;;;;;;;;3.20;79.50;;;;;;5044997;28;88005;-40
2022/12/26 10:39:21;;;;;;;;;;;3.20;79.40;;;;;;5042243;28;87671;-40
2022/12/26 10:41:50;;;;;;;;;;;3.20;79.20;;;;;;5040722;28;89041;-40
2022/12/26 10:44:16;;;;;;;;;;;3.10;79.70;;;;;;5042247;28;87080;-40
2022/12/26 10:46:51;;;;;;;;;;;3.00;80.20;;;;;;5042534;28;87478;-40
2022/12/26 10:49:19;;;;;;;;;;;3.00;80.40;;;;;;5041673;28;89350;-40
2022/12/26 10:51:44;;;;;;;;;;;3.10;80.00;;;;;;5042179;28;87234;-40
2022/12/26 10:54:13;;;;;;;;;;;3.20;80.00;;;;;;5042454;28;87456;-40
2022/12/26 10:56:39;;;;;;;;;;;3.20;79.80;;;;;;5041718;28;89514;-40
2022/12/26 10:59:04;;;;;;;;;;;3.20;79.80;;;;;;5045686;28;86702;-40
2022/12/26 11:01:32;;;;;;;;;;;3.30;79.90;;;;;;5042141;28;87193;-40
2022/12/26 11:03:59;;;;;;;;;;;3.30;80.30;;;;;;5042066;28;87158;-40
2022/12/26 11:06:26;;;;;;;;;;;3.30;80.00;;;;;;5041286;28;88611;-40
2022/12/26 11:08:52;;;;;;;;;;;3.30;80.10;;;;;;5041764;28;88114;-40
2022/12/26 11:11:24;;;;;;;;;;;3.30;79.90;;;;;;5041895;28;87202;-40
2022/12/26 11:13:54;;;;;;;;;;;3.30;80.10;;;;;;5041960;28;87484;-40
2022/12/26 11:16:28;;;;;;;;;;;3.30;80.40;;;;;;5041636;28;87985;-40
2022/12/26 11:18:54;;;;;;;;;;;3.30;80.40;;;;;;5045882;27;87195;-40
2022/12/26 11:21:22;;;;;;;;;;;3.30;80.20;;;;;;5045245;28;88070;-40
2022/12/26 11:23:51;;;;;;;;;;;3.30;80.30;;;;;;5045816;28;86359;-40
2022/12/26 11:26:28;;;;;;;;;;;3.30;80.20;;;;;;5045445;28;86841;-40
2022/12/26 11:29:12;;;;;;;;;;;3.30;80.20;;;;;;5045294;28;88192;-40
2022/12/26 11:31:39;;;;;;;;;;;3.40;80.30;;;;;;5044399;28;88160;-40
2022/12/26 11:34:09;;;;;;;;;;;3.40;80.20;;;;;;5045125;28;88403;-40
2022/12/26 11:36:35;;;;;;;;;;;3.40;80.10;;;;;;5044535;27;88897;-40
2022/12/26 11:39:05;;;;;;;;;;;3.40;80.20;;;;;;5045164;28;87162;-40
2022/12/26 11:41:42;;;;;;;;;;;3.40;80.10;;;;;;5047275;28;87385;-40
2022/12/26 11:44:08;;;;;;;;;;;3.40;80.20;;;;;;5044642;28;87053;-40
2022/12/26 11:46:45;;;;;;;;;;;3.40;80.30;;;;;;5045019;28;87388;-40
2022/12/26 11:49:23;;;;;;;;;;;3.40;80.40;;;;;;5045275;27;87790;-40
2022/12/26 11:51:49;;;;;;;;;;;3.40;80.20;;;;;;5044734;28;87124;-41
2022/12/26 11:54:20;;;;;;;;;;;3.40;80.40;;;;;;5045197;28;87171;-40
2022/12/26 11:56:46;;;;;;;;;;;3.40;80.50;;;;;;5043596;28;89169;-40
2022/12/26 11:59:17;;;;;;;;;;;3.40;80.40;;;;;;5044982;28;87121;-40
2022/12/26 12:01:43;;;;;;;;;;;3.40;80.50;;;;;;5044851;28;87378;-40
2022/12/26 12:04:08;;;;;;;;;;;3.50;80.60;;;;;;5047349;28;88083;-40
2022/12/26 12:06:48;;;;;;;;;;;3.50;80.30;;;;;;5044824;28;87480;-40
2022/12/26 12:09:13;;;;;;;;;;;3.50;80.70;;;;;;5043891;28;88309;-40
2022/12/26 12:11:54;;;;;;;;;;;3.50;80.70;;;;;;5044636;28;87174;-40
2022/12/26 12:14:22;;;;;;;;;;;3.50;80.70;;;;;;5045350;28;87424;-40
2022/12/26 12:16:53;;;;;;;;;;;3.50;80.90;;;;;;5044169;28;89478;-40
2022/12/26 12:19:26;;;;;;;;;;;3.50;80.80;;;;;;5044873;28;87395;-40
2022/12/26 12:22:07;;;;;;;;;;;3.60;80.80;;;;;;5043542;28;87932;-40
2022/12/26 12:24:35;;;;;;;;;;;3.60;80.40;;;;;;5044177;28;88190;-40
2022/12/26 12:27:03;;;;;;;;;;;3.60;80.80;;;;;;5047462;28;87199;-40
2022/12/26 12:29:38;;;;;;;;;;;3.60;80.70;;;;;;5043686;27;88246;-40
2022/12/26 12:32:09;;;;;;;;;;;3.70;80.40;;;;;;5043466;28;87086;-40
2022/12/26 12:34:48;;;;;;;;;;;3.70;80.50;;;;;;5044053;28;87272;-40
2022/12/26 12:37:14;;;;;;;;;;;3.70;80.30;;;;;;5044038;28;88172;-40
2022/12/26 12:39:58;;;;;;;;;;;3.70;80.40;;;;;;5044759;28;86358;-40
2022/12/26 12:42:32;;;;;;;;;;;3.70;80.50;;;;;;5043998;28;86929;-40
2022/12/26 12:45:16;;;;;;;;;;;3.70;80.50;;;;;;5043883;28;87933;-40
2022/12/26 12:47:45;;;;;;;;;;;3.70;80.50;;;;;;5043259;28;88046;-40
2022/12/26 12:50:27;;;;;;;;;;;3.80;80.60;;;;;;5046767;28;88564;-40
2022/12/26 12:52:59;;;;;;;;;;;3.80;80.50;;;;;;5044110;28;87570;-40
2022/12/26 12:55:37;;;;;;;;;;;3.80;80.80;;;;;;5043935;28;86972;-40
2022/12/26 12:58:09;;;;;;;;;;;3.80;80.70;;;;;;5043846;28;88124;-40
2022/12/26 13:00:45;;;;;;;;;;;3.80;80.70;;;;;;5043729;28;87136;-40
2022/12/26 13:03:10;;;;;;;;;;;3.80;80.90;;;;;;5043636;28;87346;-40
2022/12/26 13:05:43;;;;;;;;;;;3.80;80.90;;;;;;5043911;28;86928;-40
2022/12/26 13:08:11;;;;;;;;;;;3.80;81.10;;;;;;5043664;28;87092;-40
2022/12/26 13:10:40;;;;;;;;;;;3.80;81.10;;;;;;5046309;28;87513;-40
2022/12/26 13:13:12;;;;;;;;;;;3.90;81.80;;;;;;5042959;28;87849;-40
2022/12/26 13:15:45;;;;;;;;;;;3.90;81.50;;;;;;5043590;28;88423;-40
2022/12/26 13:18:22;;;;;;;;;;;3.90;81.30;;;;;;5042849;28;88203;-40
2022/12/26 13:20:48;;;;;;;;;;;3.90;81.50;;;;;;5043468;28;87124;-40
2022/12/26 13:26:33;;;;;;;;;;;3.90;81.80;;;;;;5042915;28;87373;-40
2022/12/26 13:29:06;;;;;;;;;;;3.90;81.70;;;;;;5043322;28;86927;-40
2022/12/26 13:31:35;;;;;;;;;;;4.00;81.90;;;;;;5043684;28;87519;-40
2022/12/26 13:34:01;;;;;;;;;;;4.00;82.00;;;;;;5045702;28;87565;-40
2022/12/26 13:36:46;;;;;;;;;;;4.00;82.10;;;;;;5043474;28;87482;-40
2022/12/26 13:39:11;;;;;;;;;;;4.00;81.90;;;;;;5042255;28;89122;-40
2022/12/26 13:44:36;;;;;;;;;;;4.00;82.20;;;;;;5043240;28;87449;-40
2022/12/26 13:47:01;;;;;;;;;;;4.10;82.20;;;;;;5042952;28;88495;-40
2022/12/26 13:49:30;;;;;;;;;;;4.10;82.10;;;;;;5042940;28;87129;-40
2022/12/26 13:52:18;;;;;;;;;;;4.10;82.20;;;;;;5043370;27;87391;-40
2022/12/26 13:54:47;;;;;;;;;;;4.10;82.10;;;;;;5042544;28;88017;-40
2022/12/26 13:57:21;;;;;;;;;;;4.10;82.30;;;;;;5046405;28;86400;-40
2022/12/26 13:59:54;;;;;;;;;;;4.10;82.20;;;;;;5042765;28;87049;-40
2022/12/26 14:02:23;;;;;;;;;;;4.10;82.20;;;;;;5042746;28;87141;-40
2022/12/26 14:05:00;;;;;;;;;;;4.20;82.40;;;;;;5042467;28;87799;-41
2022/12/26 14:07:25;;;;;;;;;;;4.20;82.50;;;;;;5042917;28;88190;-41
2022/12/26 14:09:57;;;;;;;;;;;4.20;82.50;;;;;;5042758;28;87112;-40
2022/12/26 14:12:28;;;;;;;;;;;4.20;82.30;;;;;;5042715;28;87408;-40
2022/12/26 14:15:12;;;;;;;;;;;4.20;82.40;;;;;;5042680;28;87184;-40
2022/12/26 14:17:41;;;;;;;;;;;4.20;82.40;;;;;;5042846;28;87151;-40
2022/12/26 14:20:26;;;;;;;;;;;4.20;82.30;;;;;;5045451;28;87503;-40
2022/12/26 14:23:11;;;;;;;;;;;4.20;82.40;;;;;;4991080;28;86473;-40
2022/12/26 14:25:36;;;;;;;;;;;4.30;82.50;;;;;;5042823;28;86929;-40
2022/12/26 14:28:22;;;;;;;;;;;4.30;82.50;;;;;;5042446;28;88060;-40
2022/12/26 14:30:50;;;;;;;;;;;4.30;82.40;;;;;;5040371;28;88126;-40
2022/12/26 14:33:23;;;;;;;;;;;4.30;82.50;;;;;;5042565;28;88443;-40
2022/12/26 14:36:01;;;;;;;;;;;4.30;82.50;;;;;;5042097;28;88050;-40
2022/12/26 14:38:36;;;;;;;;;;;4.30;82.50;;;;;;5042851;28;87084;-41
2022/12/26 14:41:06;;;;;;;;;;;4.30;82.60;;;;;;5042149;28;87541;-41
2022/12/26 14:43:36;;;;;;;;;;;4.30;82.50;;;;;;5045136;28;87298;-40
2022/12/26 14:46:22;;;;;;;;;;;4.40;82.50;;;;;;5042219;28;87392;-40
2022/12/26 14:48:50;;;;;;;;;;;4.40;82.50;;;;;;5042023;28;86898;-40
2022/12/26 14:51:18;;;;;;;;;;;4.40;82.60;;;;;;5042381;28;87025;-40
2022/12/26 14:53:44;;;;;;;;;;;4.40;82.50;;;;;;5043008;27;87609;-40
2022/12/26 14:56:16;;;;;;;;;;;4.40;82.60;;;;;;5044999;28;88870;-40
2022/12/26 14:58:49;;;;;;;;;;;4.40;82.50;;;;;;5045607;28;86984;-40
2022/12/26 15:01:15;;;;;;;;;;;4.40;82.50;;;;;;5045973;27;87423;-40
2022/12/26 15:04:00;;;;;;;;;;;4.40;82.50;;;;;;5045486;28;88559;-40
2022/12/26 15:06:44;;;;;;;;;;;4.40;82.70;;;;;;5048689;28;87144;-40
2022/12/26 15:09:29;;;;;;;;;;;4.40;82.70;;;;;;5045355;28;87908;-40
2022/12/26 15:12:01;;;;;;;;;;;4.40;82.70;;;;;;4993629;28;87088;-41
2022/12/26 15:14:45;;;;;;;;;;;4.40;82.60;;;;;;5046132;28;87335;-40
2022/12/26 15:17:22;;;;;;;;;;;4.40;82.50;;;;;;5045250;28;88010;-40
2022/12/26 15:19:53;;;;;;;;;;;4.40;82.50;;;;;;5045604;28;86705;-41
2022/12/26 15:22:31;;;;;;;;;;;4.50;82.50;;;;;;5044925;28;88031;-40
2022/12/26 15:25:02;;;;;;;;;;;4.50;82.50;;;;;;5044931;28;87753;-41
2022/12/26 15:27:33;;;;;;;;;;;4.50;82.50;;;;;;5048552;28;87146;-40
2022/12/26 15:30:02;;;;;;;;;;;4.50;82.50;;;;;;5044661;28;88153;-41
2022/12/26 15:32:31;;;;;;;;;;;4.50;82.50;;;;;;5045147;28;87135;-40
2022/12/26 15:34:57;;;;;;;;;;;4.50;82.50;;;;;;5045103;28;88097;-41
2022/12/26 15:37:25;;;;;;;;;;;4.50;82.50;;;;;;5044982;28;88128;-41
2022/12/26 15:40:10;;;;;;;;;;;4.50;82.50;;;;;;5045746;28;86163;-41
2022/12/26 15:43:01;;;;;;;;;;;4.50;83.30;;;;;;5044819;28;87110;-40
2022/12/26 15:45:33;;;;;;;;;;;4.50;82.70;;;;;;5044853;28;88039;-40
2022/12/26 15:48:11;;;;;;;;;;;4.50;82.60;;;;;;5044707;28;88047;-40
2022/12/26 15:50:48;;;;;;;;;;;4.50;82.60;;;;;;5047648;28;88307;-40
2022/12/26 15:53:23;;;;;;;;;;;4.50;82.70;;;;;;5044921;28;87077;-40
2022/12/26 15:56:07;;;;;;;;;;;4.60;82.70;;;;;;5045050;28;87515;-41
2022/12/26 15:58:43;;;;;;;;;;;4.50;82.60;;;;;;5044518;28;89480;-41
2022/12/26 16:01:09;;;;;;;;;;;4.60;82.70;;;;;;5044726;28;86892;-40
2022/12/26 16:03:48;;;;;;;;;;;4.60;82.60;;;;;;5044776;28;87273;-40
2022/12/26 16:06:33;;;;;;;;;;;4.60;82.50;;;;;;5043350;28;87082;-41
2022/12/26 16:09:16;;;;;;;;;;;4.60;82.30;;;;;;5044942;28;87116;-40
2022/12/26 16:11:55;;;;;;;;;;;4.60;82.40;;;;;;5044715;28;87381;-40
2022/12/26 16:14:25;;;;;;;;;;;4.60;82.50;;;;;;5046193;28;92528;-40
2022/12/26 16:16:51;;;;;;;;;;;4.60;82.30;;;;;;5044523;28;88230;-40
2022/12/26 16:19:26;;;;;;;;;;;4.70;82.30;;;;;;5044250;27;88188;-40
2022/12/26 16:24:42;;;;;;;;;;;4.70;82.10;;;;;;5044750;28;86994;-41
2022/12/26 16:27:08;;;;;;;;;;;4.70;82.10;;;;;;5044064;28;88167;-41
2022/12/26 16:29:39;;;;;;;;;;;4.70;82.10;;;;;;5044632;28;87021;-40
2022/12/26 16:32:06;;;;;;;;;;;4.70;82.10;;;;;;5045058;28;87431;-40
2022/12/26 16:34:33;;;;;;;;;;;4.70;82.00;;;;;;5043880;28;89132;-40
2022/12/26 16:36:58;;;;;;;;;;;4.70;82.00;;;;;;5046573;28;88281;-40
2022/12/26 16:39:24;;;;;;;;;;;4.80;82.20;;;;;;5043245;28;89145;-40
2022/12/26 16:42:02;;;;;;;;;;;4.80;82.20;;;;;;5043681;28;87143;-41
2022/12/26 16:44:35;;;;;;;;;;;4.70;82.10;;;;;;5044279;28;87109;-40
2022/12/26 16:47:03;;;;;;;;;;;4.80;82.00;;;;;;5043764;28;87935;-41
2022/12/26 16:49:30;;;;;;;;;;;4.80;82.00;;;;;;5044059;28;87196;-40
2022/12/26 16:51:55;;;;;;;;;;;4.80;82.00;;;;;;5044064;28;87501;-41
2022/12/26 16:54:21;;;;;;;;;;;4.80;82.00;;;;;;5043522;28;88151;-41